Time;durP1;ratioP1;P1;durP2;ratioP2;P2;SDS_P1;SDS_P2;PMS_P1;PMS_P2;Temp;Humidity;BMP_temperature;BMP_pressure;BME280_temperature;BME280_humidity;BME280_pressure;Samples;Min_cycle;Max_cycle;Signal;HPM_P1;HPM_P2
2022/02/01 00:00:43;;;;;;;21.10;8.40;;;;;;;1.51;100.00;100761.63;107849;1281;60640;-78
2022/02/01 00:03:16;;;;;;;19.00;9.30;;;;;;;1.51;100.00;100757.23;107543;1281;75704;-78
2022/02/01 00:06:06;;;;;;;24.50;10.10;;;;;;;1.52;100.00;100754.02;107938;1281;71318;-77
2022/02/01 00:08:42;;;;;;;25.30;11.30;;;;;;;1.54;100.00;100749.92;107836;1281;72879;-77
2022/02/01 00:11:25;;;;;;;19.70;9.50;;;;;;;1.54;100.00;100756.67;107944;1280;61665;-78
2022/02/01 00:14:18;;;;;;;27.10;11.30;;;;;;;1.55;100.00;100753.14;107933;1280;59960;-78
2022/02/01 00:17:15;;;;;;;21.50;8.80;;;;;;;1.56;100.00;100754.43;107930;1279;74954;-78
2022/02/01 00:33:33;;;;;;;17.90;8.00;;;;;;;1.57;100.00;100767.09;107727;1281;71244;-77
2022/02/01 00:38:47;;;;;;;22.10;10.50;;;;;;;1.56;100.00;100769.77;107930;1281;61509;-78
2022/02/01 00:41:14;;;;;;;28.80;10.30;;;;;;;1.56;100.00;100762.29;107898;1280;60632;-77
2022/02/01 00:43:41;;;;;;;14.40;7.30;;;;;;;1.56;100.00;100761.93;107911;1279;74905;-78
2022/02/01 00:46:08;;;;;;;26.10;11.80;;;;;;;1.56;100.00;100752.88;107941;1281;71528;-78
2022/02/01 00:48:35;;;;;;;28.10;11.30;;;;;;;1.57;100.00;100754.37;107683;1281;73991;-77
2022/02/01 00:51:02;;;;;;;29.30;11.80;;;;;;;1.57;100.00;100752.47;107845;1279;59082;-77
2022/02/01 00:53:30;;;;;;;21.80;10.00;;;;;;;1.57;100.00;100745.98;107962;1279;61768;-78
2022/02/01 00:55:58;;;;;;;25.70;12.20;;;;;;;1.58;100.00;100746.81;107824;1281;73333;-77
2022/02/01 00:58:24;;;;;;;23.40;10.20;;;;;;;1.56;100.00;100748.48;107730;1281;71402;-78
2022/02/01 01:00:51;;;;;;;31.10;12.10;;;;;;;1.55;100.00;100740.95;107879;1281;73131;-78
2022/02/01 01:03:18;;;;;;;24.90;10.00;;;;;;;1.53;100.00;100749.61;107754;1281;61098;-77
2022/02/01 01:05:45;;;;;;;24.20;10.80;;;;;;;1.52;100.00;100746.55;107905;1279;59773;-78
2022/02/01 01:08:12;;;;;;;18.10;8.90;;;;;;;1.51;100.00;100741.40;107722;1281;76247;-78
2022/02/01 01:10:40;;;;;;;18.00;9.50;;;;;;;1.49;100.00;100746.60;107865;1280;72010;-77
2022/02/01 01:15:45;;;;;;;22.50;9.00;;;;;;;1.49;100.00;100743.84;107882;1279;61667;-78
2022/02/01 01:53:44;;;;;;;11.50;5.50;;;;;;;1.52;100.00;100754.20;107686;1282;73003;-75
2022/02/01 01:56:11;;;;;;;13.50;5.40;;;;;;;1.54;100.00;100755.11;107917;1279;62267;-75
2022/02/01 01:58:37;;;;;;;15.00;5.40;;;;;;;1.56;100.00;100774.10;107742;1281;60687;-75
2022/02/01 02:03:33;;;;;;;13.20;4.40;;;;;;;1.63;100.00;100768.41;107872;1279;71246;-76
2022/02/01 02:06:00;;;;;;;7.70;4.30;;;;;;;1.63;100.00;100778.81;107802;1279;59051;-76
2022/02/01 02:08:28;;;;;;;11.80;4.40;;;;;;;1.66;100.00;100778.66;107803;1280;61480;-76
2022/02/01 02:16:00;;;;;;;6.50;3.70;;;;;;;1.71;100.00;100786.60;107803;1280;71466;-75
2022/02/01 02:18:31;;;;;;;6.20;2.40;;;;;;;1.74;100.00;100775.39;107825;1279;73026;-75
2022/02/01 02:20:59;;;;;;;13.50;3.60;;;;;;;1.75;100.00;100773.94;107759;1281;62426;-75
2022/02/01 02:23:26;;;;;;;12.00;2.90;;;;;;;1.76;100.00;100768.48;107820;1279;59347;-76
2022/02/01 02:25:53;;;;;;;6.50;2.90;;;;;;;1.78;100.00;100774.92;107773;1279;76010;-77
2022/02/01 02:28:21;;;;;;;11.50;3.00;;;;;;;1.77;100.00;100773.05;107488;1282;71399;-76
2022/02/01 02:30:50;;;;;;;9.50;2.80;;;;;;;1.80;100.00;100755.41;107770;1281;72788;-75
2022/02/01 02:33:18;;;;;;;9.20;3.60;;;;;;;1.80;100.00;100751.05;107678;1281;60907;-74
2022/02/01 02:35:56;;;;;;;5.50;2.80;;;;;;;1.78;100.00;100746.88;107813;1279;60398;-75
2022/02/01 02:38:46;;;;;;;6.40;3.20;;;;;;;1.79;100.00;100739.64;107838;1279;75033;-75
2022/02/01 02:46:52;;;;;;;7.10;3.40;;;;;;;1.81;100.00;100731.27;107811;1279;62211;-75
2022/02/01 02:49:22;;;;;;;7.30;3.00;;;;;;;1.79;100.00;100739.83;107749;1281;61925;-76
2022/02/01 02:51:50;;;;;;;7.00;2.30;;;;;;;1.76;100.00;100743.67;107734;1281;75931;-76
2022/02/01 02:54:22;;;;;;;10.50;3.20;;;;;;;1.73;100.00;100748.77;107799;1280;72369;-76
2022/02/01 02:57:00;;;;;;;15.50;3.30;;;;;;;1.73;100.00;100754.88;107697;1281;72270;-74
2022/02/01 02:59:29;;;;;;;6.60;2.30;;;;;;;1.73;100.00;100758.02;107777;1279;60964;-75
2022/02/01 03:01:57;;;;;;;15.40;3.30;;;;;;;1.73;100.00;100751.96;107869;1279;61585;-76
2022/02/01 03:04:28;;;;;;;6.50;2.70;;;;;;;1.74;100.00;100747.35;107758;1281;76044;-75
2022/02/01 03:06:55;;;;;;;3.30;1.30;;;;;;;1.76;100.00;100747.74;107789;1281;70678;-75
2022/02/01 03:09:24;;;;;;;12.30;3.30;;;;;;;1.76;100.00;100753.80;107806;1281;73031;-76
2022/02/01 03:11:53;;;;;;;7.90;2.40;;;;;;;1.74;100.00;100755.88;107723;1279;62556;-75
2022/02/01 03:14:28;;;;;;;9.10;2.30;;;;;;;1.72;100.00;100761.27;107785;1279;60772;-74
2022/02/01 03:22:09;;;;;;;4.00;0.90;;;;;;;1.67;100.00;100772.09;107652;1281;73864;-73
2022/02/01 03:24:36;;;;;;;6.00;1.70;;;;;;;1.64;100.00;100758.02;107784;1279;62568;-75
2022/02/01 03:27:03;;;;;;;11.40;1.40;;;;;;;1.64;100.00;100768.81;107851;1281;59035;-75
2022/02/01 03:29:30;;;;;;;4.40;0.70;;;;;;;1.64;100.00;100769.70;107803;1279;74371;-74
2022/02/01 03:31:56;;;;;;;8.10;1.50;;;;;;;1.63;100.00;100777.77;107900;1279;72284;-75
2022/02/01 03:34:23;;;;;;;5.90;1.30;;;;;;;1.64;100.00;100768.64;107766;1281;72993;-74
2022/02/01 03:36:50;;;;;;;10.60;1.90;;;;;;;1.63;100.00;100762.96;107826;1279;61402;-75
2022/02/01 03:39:17;;;;;;;6.90;1.30;;;;;;;1.63;100.00;100763.84;107783;1279;60460;-74
2022/02/01 03:41:44;;;;;;;10.30;3.80;;;;;;;1.61;100.00;100763.27;107774;1280;75827;-75
2022/02/01 03:44:12;;;;;;;12.50;1.80;;;;;;;1.59;100.00;100765.00;107701;1281;72791;-75
2022/02/01 03:46:50;;;;;;;10.20;1.60;;;;;;;1.59;100.00;100754.00;107790;1281;72316;-75
2022/02/01 03:49:16;;;;;;;9.30;1.10;;;;;;;1.59;100.00;100754.23;107783;1280;61388;-75
2022/02/01 03:51:43;;;;;;;12.30;1.80;;;;;;;1.59;100.00;100761.52;107795;1280;59033;-74
2022/02/01 03:54:09;;;;;;;7.00;1.20;;;;;;;1.58;100.00;100767.16;107744;1281;59705;-75
2022/02/01 03:56:36;;;;;;;3.60;0.60;;;;;;;1.58;100.00;100769.30;107811;1281;71588;-75
2022/02/01 03:59:03;;;;;;;12.30;1.70;;;;;;;1.57;100.00;100776.64;107825;1279;74123;-75
2022/02/01 04:01:29;;;;;;;8.90;1.70;;;;;;;1.58;100.00;100780.45;107474;1282;61582;-75
2022/02/01 04:03:56;;;;;;;6.70;1.50;;;;;;;1.58;100.00;100790.75;107806;1281;62130;-74
2022/02/01 04:06:23;;;;;;;14.30;2.60;;;;;;;1.58;100.00;100790.00;107801;1279;59506;-75
2022/02/01 04:08:50;;;;;;;7.40;1.50;;;;;;;1.57;100.00;100796.33;107772;1279;72097;-75
2022/02/01 04:11:17;;;;;;;8.50;2.40;;;;;;;1.57;100.00;100795.48;107649;1281;73925;-75
2022/02/01 04:13:44;;;;;;;13.50;2.30;;;;;;;1.57;100.00;100794.09;107786;1279;61458;-75
2022/02/01 04:16:11;;;;;;;8.00;0.80;;;;;;;1.58;100.00;100792.64;107778;1279;60515;-75
2022/02/01 04:18:37;;;;;;;5.60;1.20;;;;;;;1.59;100.00;100795.14;107831;1279;74466;-75
2022/02/01 04:21:04;;;;;;;13.40;1.80;;;;;;;1.60;100.00;100769.63;107785;1279;71530;-75
2022/02/01 04:23:30;;;;;;;11.70;2.80;;;;;;;1.61;100.00;100762.42;107795;1279;71904;-75
2022/02/01 04:25:57;;;;;;;15.80;1.70;;;;;;;1.61;100.00;100754.39;107786;1280;62535;-75
2022/02/01 04:28:24;;;;;;;7.70;1.40;;;;;;;1.59;100.00;100739.20;107739;1281;61829;-75
2022/02/01 04:30:50;;;;;;;13.80;1.60;;;;;;;1.57;100.00;100735.50;107806;1279;59542;-74
2022/02/01 04:33:17;;;;;;;8.50;1.30;;;;;;;1.57;100.00;100735.50;107565;1281;71475;-75
2022/02/01 04:35:43;;;;;;;14.20;1.90;;;;;;;1.55;100.00;100735.13;107777;1280;60505;-75
2022/02/01 04:38:10;;;;;;;9.30;1.30;;;;;;;1.53;100.00;100724.86;107833;1280;59077;-75
2022/02/01 04:40:38;;;;;;;12.70;2.30;;;;;;;1.51;100.00;100723.44;107836;1281;59137;-75
2022/02/01 04:43:06;;;;;;;14.10;2.40;;;;;;;1.48;100.00;100727.35;107793;1281;74922;-75
2022/02/01 04:45:33;;;;;;;12.60;1.90;;;;;;;1.45;100.00;100732.42;107507;1281;71376;-75
2022/02/01 04:48:01;;;;;;;10.20;1.50;;;;;;;1.42;100.00;100738.77;107770;1281;74140;-74
2022/02/01 04:50:29;;;;;;;14.10;1.90;;;;;;;1.39;100.00;100738.13;107766;1279;61282;-75
2022/02/01 04:52:56;;;;;;;3.40;0.90;;;;;;;1.36;100.00;100748.42;107856;1280;60776;-75
2022/02/01 04:55:47;;;;;;;11.40;1.40;;;;;;;1.34;99.99;100752.04;107821;1279;73879;-74
2022/02/01 04:58:13;;;;;;;12.90;1.80;;;;;;;1.35;100.00;100745.67;107812;1281;71363;-75
2022/02/01 05:00:40;;;;;;;10.40;2.40;;;;;;;1.35;100.00;100742.61;107774;1279;59198;-75
2022/02/01 05:03:07;;;;;;;13.20;2.00;;;;;;;1.34;100.00;100745.29;107762;1281;61139;-75
2022/02/01 05:05:34;;;;;;;7.20;1.70;;;;;;;1.33;100.00;100741.20;107832;1281;60681;-74
2022/02/01 05:08:03;;;;;;;10.50;1.70;;;;;;;1.30;100.00;100741.05;107867;1279;59410;-74
2022/02/01 05:10:32;;;;;;;6.60;2.30;;;;;;;1.29;99.90;100737.83;107785;1281;71727;-75
2022/02/01 05:15:47;;;;;;;6.60;2.00;;;;;;;1.29;99.55;100752.45;107768;1281;61147;-74
2022/02/01 05:18:19;;;;;;;8.30;1.20;;;;;;;1.29;99.53;100765.52;107858;1281;59586;-75
2022/02/01 05:20:51;;;;;;;6.70;1.50;;;;;;;1.28;99.62;100750.98;107779;1281;74986;-75
2022/02/01 05:23:23;;;;;;;8.60;1.80;;;;;;;1.27;99.71;100753.33;107778;1281;72279;-75
2022/02/01 05:25:50;;;;;;;13.00;1.90;;;;;;;1.26;99.39;100752.69;107829;1280;74654;-75
2022/02/01 05:28:18;;;;;;;6.30;1.40;;;;;;;1.25;99.65;100767.02;107882;1279;62446;-74
2022/02/01 05:30:45;;;;;;;7.40;1.60;;;;;;;1.25;99.54;100758.48;107835;1279;60271;-74
2022/02/01 05:33:12;;;;;;;5.80;1.20;;;;;;;1.26;99.32;100762.81;107906;1279;74938;-75
2022/02/01 05:35:38;;;;;;;3.40;1.20;;;;;;;1.27;98.87;100766.00;107834;1281;59044;-74
2022/02/01 05:38:05;;;;;;;7.80;1.60;;;;;;;1.30;98.62;100763.55;107716;1281;73008;-74
2022/02/01 05:40:32;;;;;;;9.70;1.30;;;;;;;1.31;98.83;100763.46;107886;1279;61690;-74
2022/02/01 05:43:02;;;;;;;14.50;2.20;;;;;;;1.33;98.49;100758.79;107855;1279;60612;-74
2022/02/01 05:45:33;;;;;;;11.90;1.90;;;;;;;1.34;98.55;100770.67;107906;1279;74893;-75
2022/02/01 05:48:02;;;;;;;5.90;1.10;;;;;;;1.35;98.38;100771.69;107764;1281;71380;-75
2022/02/01 05:50:30;;;;;;;5.50;1.50;;;;;;;1.36;98.68;100778.38;107621;1282;74975;-74
2022/02/01 05:52:57;;;;;;;7.40;1.10;;;;;;;1.36;98.47;100786.24;107836;1281;62586;-75
2022/02/01 05:55:24;;;;;;;13.40;1.70;;;;;;;1.36;98.56;100784.37;107837;1279;60588;-74
2022/02/01 05:57:53;;;;;;;13.60;1.80;;;;;;;1.34;98.42;100780.84;107773;1281;75002;-74
2022/02/01 06:00:21;;;;;;;13.30;2.00;;;;;;;1.35;98.78;100771.81;107831;1279;72177;-75
2022/02/01 06:02:50;;;;;;;12.70;1.50;;;;;;;1.36;99.00;100769.70;107817;1279;73452;-74
2022/02/01 06:05:18;;;;;;;14.10;1.80;;;;;;;1.36;98.70;100758.37;107784;1280;62551;-74
2022/02/01 06:07:45;;;;;;;5.90;1.20;;;;;;;1.37;99.04;100752.52;107722;1281;61575;-75
2022/02/01 06:10:13;;;;;;;5.80;0.70;;;;;;;1.38;99.19;100749.69;107937;1278;76020;-74
2022/02/01 06:12:45;;;;;;;9.90;1.50;;;;;;;1.38;99.27;100748.63;107855;1279;71706;-75
2022/02/01 06:15:13;;;;;;;9.00;1.20;;;;;;;1.38;99.59;100755.80;107832;1281;73954;-75
2022/02/01 06:17:40;;;;;;;11.80;1.50;;;;;;;1.39;99.70;100747.81;107746;1281;62467;-74
2022/02/01 06:20:09;;;;;;;4.50;1.30;;;;;;;1.40;99.88;100740.44;107844;1281;62076;-74
2022/02/01 06:22:36;;;;;;;11.20;2.00;;;;;;;1.41;99.88;100741.25;107722;1279;75928;-76
2022/02/01 06:25:03;;;;;;;10.30;1.80;;;;;;;1.42;99.97;100747.48;107844;1281;71822;-75
2022/02/01 06:27:30;;;;;;;5.60;1.10;;;;;;;1.45;99.99;100737.88;107824;1281;72976;-75
2022/02/01 06:29:57;;;;;;;6.70;1.10;;;;;;;1.46;100.00;100720.19;107851;1279;61664;-76
2022/02/01 06:32:31;;;;;;;10.50;2.20;;;;;;;1.47;100.00;100712.11;107752;1282;60817;-76
2022/02/01 06:34:57;;;;;;;9.30;1.40;;;;;;;1.48;100.00;100704.86;107775;1281;74038;-74
2022/02/01 06:37:24;;;;;;;10.50;1.60;;;;;;;1.50;100.00;100712.36;107805;1279;71480;-75
2022/02/01 06:39:50;;;;;;;26.00;3.00;;;;;;;1.52;100.00;100724.39;107838;1279;59088;-75
2022/02/01 06:42:17;;;;;;;11.40;2.10;;;;;;;1.55;100.00;100730.60;107839;1279;59022;-75
2022/02/01 06:44:44;;;;;;;4.10;0.90;;;;;;;1.58;100.00;100737.16;107723;1280;60588;-75
2022/02/01 06:47:10;;;;;;;8.70;1.80;;;;;;;1.60;99.84;100748.17;107839;1281;75996;-75
2022/02/01 06:49:38;;;;;;;4.60;1.90;;;;;;;1.65;99.75;100756.05;107761;1281;71509;-74
2022/02/01 06:52:05;;;;;;;10.40;1.20;;;;;;;1.68;99.77;100752.67;107775;1281;58903;-74
2022/02/01 06:54:33;;;;;;;11.60;1.40;;;;;;;1.71;99.72;100751.04;107802;1279;62525;-75
2022/02/01 06:57:00;;;;;;;9.60;1.60;;;;;;;1.74;99.46;100750.83;107850;1279;61896;-75
2022/02/01 06:59:30;;;;;;;6.20;1.30;;;;;;;1.77;99.27;100744.68;107794;1281;73752;-75
2022/02/01 07:01:56;;;;;;;8.00;1.00;;;;;;;1.79;99.16;100745.00;107828;1279;72388;-74
2022/02/01 07:04:23;;;;;;;6.80;0.90;;;;;;;1.82;99.11;100756.84;107858;1281;73018;-75
2022/02/01 07:06:50;;;;;;;14.40;1.20;;;;;;;1.84;98.96;100749.18;107694;1279;59877;-74
2022/02/01 07:09:21;;;;;;;5.50;1.60;;;;;;;1.85;98.54;100743.91;107792;1279;60465;-74
2022/02/01 07:11:48;;;;;;;5.20;0.90;;;;;;;1.86;97.85;100748.69;107784;1279;75000;-75
2022/02/01 07:14:15;;;;;;;10.00;1.30;;;;;;;1.88;97.58;100751.17;107564;1279;71166;-75
2022/02/01 07:16:42;;;;;;;8.10;1.40;;;;;;;1.91;97.21;100739.23;107855;1279;73070;-75
2022/02/01 07:19:08;;;;;;;9.10;1.40;;;;;;;1.93;96.89;100729.48;107850;1279;61462;-75
2022/02/01 07:21:35;;;;;;;7.20;2.40;;;;;;;1.96;96.76;100718.95;107830;1281;60564;-76
2022/02/01 07:24:04;;;;;;;5.50;1.30;;;;;;;1.98;96.39;100722.30;107832;1281;74926;-75
2022/02/01 07:26:32;;;;;;;7.30;1.50;;;;;;;2.00;96.07;100716.84;107532;1279;471959;-75
2022/02/01 07:28:59;;;;;;;10.00;1.30;;;;;;;2.05;96.03;100717.07;107790;1279;73935;-79
2022/02/01 07:31:28;;;;;;;11.10;1.70;;;;;;;2.09;96.05;100717.50;107820;1279;61947;-79
2022/02/01 07:33:55;;;;;;;11.40;1.40;;;;;;;2.14;95.51;100711.45;107724;1281;59544;-78
2022/02/01 07:36:22;;;;;;;3.90;0.80;;;;;;;2.19;95.58;100705.48;107807;1279;73592;-80
2022/02/01 07:38:49;;;;;;;2.20;0.80;;;;;;;2.22;95.29;100712.23;107794;1279;71540;-78
2022/02/01 07:41:16;;;;;;;6.50;1.60;;;;;;;2.26;95.23;100726.77;107410;1281;73433;-78
2022/02/01 07:43:43;;;;;;;4.60;2.30;;;;;;;2.29;95.13;100723.69;107787;1281;61627;-79
2022/02/01 07:46:14;;;;;;;5.10;1.20;;;;;;;2.33;94.79;100714.51;107855;1281;60626;-78
2022/02/01 07:48:41;;;;;;;4.00;1.20;;;;;;;2.35;94.72;100705.27;107771;1281;75956;-78
2022/02/01 07:51:11;;;;;;;1.90;0.70;;;;;;;2.38;94.39;100692.63;107787;1281;71364;-78
2022/02/01 07:53:38;;;;;;;5.90;1.30;;;;;;;2.41;93.82;100686.08;107648;1282;72969;-78
2022/02/01 07:56:07;;;;;;;8.90;1.40;;;;;;;2.45;93.98;100684.40;107796;1281;59011;-78
2022/02/01 07:58:34;;;;;;;7.60;1.00;;;;;;;2.50;93.79;100676.36;107779;1281;61968;-78
2022/02/01 08:01:01;;;;;;;6.00;1.00;;;;;;;2.52;93.65;100676.16;107795;1281;76061;-79
2022/02/01 08:03:27;;;;;;;12.50;1.80;;;;;;;2.56;93.41;100675.55;107678;1280;72780;-80
2022/02/01 08:05:54;;;;;;;8.80;1.00;;;;;;;2.59;93.00;100666.88;107888;1281;72975;-78
2022/02/01 08:08:21;;;;;;;9.90;1.30;;;;;;;2.65;92.96;100657.67;107800;1281;59190;-79
2022/02/01 08:10:52;;;;;;;6.10;0.80;;;;;;;2.70;92.26;100639.09;107874;1281;60569;-79
2022/02/01 08:18:47;;;;;;;8.30;1.80;;;;;;;2.83;91.68;100626.17;107720;1281;72798;-78
2022/02/01 08:21:25;;;;;;;7.00;2.10;;;;;;;2.86;91.56;100616.27;107517;1281;62343;-78
2022/02/01 08:23:52;;;;;;;8.90;1.60;;;;;;;2.89;91.60;100617.31;107795;1281;60938;-78
2022/02/01 08:26:19;;;;;;;6.20;1.60;;;;;;;2.90;91.60;100620.21;107833;1281;76235;-78
2022/02/01 08:28:46;;;;;;;7.90;1.30;;;;;;;2.91;91.17;100614.86;107884;1281;71415;-79
2022/02/01 08:31:33;;;;;;;5.20;1.00;;;;;;;2.93;91.18;100596.52;107844;1279;74968;-78
2022/02/01 08:34:01;;;;;;;6.40;1.40;;;;;;;2.93;90.89;100580.45;107860;1281;60033;-78
2022/02/01 08:36:28;;;;;;;4.40;1.40;;;;;;;2.94;90.83;100576.16;107841;1281;60597;-78
2022/02/01 08:38:55;;;;;;;9.70;2.00;;;;;;;2.96;90.17;100570.10;107844;1280;75922;-79
2022/02/01 08:41:21;;;;;;;2.60;0.70;;;;;;;2.98;90.36;100562.20;107800;1281;71503;-78
2022/02/01 08:43:49;;;;;;;4.80;1.80;;;;;;;3.01;89.47;100562.16;107833;1281;73080;-79
2022/02/01 08:46:18;;;;;;;7.80;1.30;;;;;;;3.04;89.37;100564.15;107636;1278;59537;-78
2022/02/01 08:48:44;;;;;;;4.00;1.20;;;;;;;3.09;89.29;100550.68;107747;1281;59791;-78
2022/02/01 08:51:12;;;;;;;3.30;0.80;;;;;;;3.12;88.26;100537.66;107468;1281;75973;-78
2022/02/01 08:53:56;;;;;;;14.50;1.40;;;;;;;3.16;88.00;100531.34;107771;1281;71549;-79
2022/02/01 08:59:27;;;;;;;2.10;0.70;;;;;;;3.24;86.94;100530.27;107448;1282;59907;-78
2022/02/01 09:01:54;;;;;;;6.10;2.00;;;;;;;3.28;87.09;100536.11;107766;1281;60664;-79
2022/02/01 09:04:23;;;;;;;5.60;1.90;;;;;;;3.30;86.02;100534.38;107533;1281;74972;-80
2022/02/01 09:06:49;;;;;;;6.70;1.10;;;;;;;3.31;85.68;100519.08;107774;1281;72494;-80
2022/02/01 09:09:16;;;;;;;5.50;1.50;;;;;;;3.31;85.10;100507.20;107777;1281;72110;-79
2022/02/01 09:11:42;;;;;;;7.70;0.70;;;;;;;3.33;85.55;100496.73;107771;1281;59950;-78
2022/02/01 09:14:09;;;;;;;2.40;0.60;;;;;;;3.36;85.30;100482.98;107744;1281;60335;-77
2022/02/01 09:16:36;;;;;;;4.80;1.60;;;;;;;3.41;84.72;100481.69;107765;1281;75018;-77
2022/02/01 09:19:03;;;;;;;11.00;1.30;;;;;;;3.47;84.57;100467.70;107844;1281;70193;-78
2022/02/01 09:21:29;;;;;;;7.50;1.30;;;;;;;3.52;84.04;100467.71;107637;1272;74556;-77
2022/02/01 09:23:56;;;;;;;8.40;0.80;;;;;;;3.56;83.39;100463.59;107660;1274;62469;-78
2022/02/01 09:26:26;;;;;;;6.60;1.20;;;;;;;3.64;82.74;100454.81;107928;1281;60584;-77
2022/02/01 09:29:12;;;;;;;4.80;1.40;;;;;;;3.73;82.82;100447.18;107718;1281;76817;-79
2022/02/01 09:31:39;;;;;;;5.90;1.30;;;;;;;3.79;81.63;100444.09;107772;1281;71501;-80
2022/02/01 09:34:07;;;;;;;7.50;1.70;;;;;;;3.82;81.20;100433.63;107772;1281;59056;-79
2022/02/01 09:36:34;;;;;;;6.00;1.00;;;;;;;3.87;82.20;100427.27;107860;1281;61456;-78
2022/02/01 09:39:01;;;;;;;4.90;1.20;;;;;;;3.89;81.23;100437.02;107873;1281;60729;-81
2022/02/01 09:41:29;;;;;;;7.30;1.80;;;;;;;3.94;80.84;100419.48;107849;1280;74937;-78
2022/02/01 09:43:57;;;;;;;6.60;1.60;;;;;;;3.96;80.79;100422.90;107919;1281;71793;-77
2022/02/01 09:46:25;;;;;;;10.90;3.30;;;;;;;4.01;81.01;100411.61;107717;1281;74158;-77
2022/02/01 09:48:52;;;;;;;4.10;1.10;;;;;;;4.08;81.23;100406.96;107413;1283;59595;-79
2022/02/01 09:51:24;;;;;;;4.90;1.00;;;;;;;4.12;80.81;100402.20;107677;1283;61031;-79
2022/02/01 09:54:11;;;;;;;8.50;2.00;;;;;;;4.14;80.91;100387.72;107550;1281;78386;-78
2022/02/01 09:56:38;;;;;;;6.00;1.80;;;;;;;4.12;80.87;100384.52;107677;1281;71377;-78
2022/02/01 09:59:19;;;;;;;9.40;1.70;;;;;;;4.09;81.24;100386.59;107683;1281;73164;-78
2022/02/01 10:01:47;;;;;;;4.60;1.40;;;;;;;4.04;81.74;100384.42;107667;1281;61590;-79
2022/02/01 10:04:14;;;;;;;5.10;1.60;;;;;;;4.04;82.68;100364.23;107731;1281;60701;-78
2022/02/01 10:06:42;;;;;;;13.70;2.40;;;;;;;4.06;82.81;100359.74;107689;1281;75787;-78
2022/02/01 10:09:28;;;;;;;6.60;1.50;;;;;;;4.10;82.42;100355.86;107604;1281;73343;-78
2022/02/01 10:11:56;;;;;;;10.10;3.10;;;;;;;4.12;82.25;100347.98;107840;1281;74191;-79
2022/02/01 10:14:29;;;;;;;8.20;2.30;;;;;;;4.07;81.88;100348.54;107725;1281;59965;-79
2022/02/01 10:16:59;;;;;;;6.70;2.80;;;;;;;4.04;82.29;100339.23;107828;1280;61612;-79
2022/02/01 10:19:26;;;;;;;11.60;2.90;;;;;;;3.98;82.97;100344.46;107702;1282;74958;-79
2022/02/01 10:21:58;;;;;;;6.10;2.40;;;;;;;3.93;84.55;100322.77;107705;1281;59177;-78
2022/02/01 10:24:33;;;;;;;7.10;2.20;;;;;;;3.82;86.14;100322.21;107875;1281;72926;-79
2022/02/01 10:27:16;;;;;;;10.70;2.80;;;;;;;3.71;86.83;100314.83;107734;1281;61030;-79
2022/02/01 10:30:02;;;;;;;8.60;2.90;;;;;;;3.64;87.80;100294.79;107760;1282;60409;-78
2022/02/01 10:38:02;;;;;;;5.10;2.30;;;;;;;3.54;89.39;100271.55;107818;1281;73528;-78
2022/02/01 10:40:49;;;;;;;4.50;2.30;;;;;;;3.47;89.28;100280.94;107727;1281;61453;-79
2022/02/01 10:43:27;;;;;;;8.90;2.60;;;;;;;3.41;90.51;100241.11;107944;1280;60458;-78
2022/02/01 10:46:01;;;;;;;11.10;3.20;;;;;;;3.36;91.35;100235.86;107613;1282;73608;-79
2022/02/01 10:48:28;;;;;;;5.60;2.70;;;;;;;3.30;92.22;100226.42;107892;1281;71752;-78
2022/02/01 10:51:21;;;;;;;4.90;2.80;;;;;;;3.25;93.05;100231.52;107787;1281;73002;-78
2022/02/01 10:53:49;;;;;;;10.60;3.60;;;;;;;3.19;93.27;100233.98;107607;1283;59603;-77
2022/02/01 10:56:18;;;;;;;14.20;3.40;;;;;;;3.17;93.58;100226.70;107708;1281;60562;-77
2022/02/01 10:58:47;;;;;;;13.10;4.20;;;;;;;3.16;94.59;100216.32;107480;1281;76083;-77
2022/02/01 11:01:20;;;;;;;10.70;4.00;;;;;;;3.15;95.18;100215.39;107665;1281;71287;-79
2022/02/01 11:03:49;;;;;;;7.80;3.60;;;;;;;3.11;95.52;100203.98;107837;1281;74299;-79
2022/02/01 11:06:16;;;;;;;8.50;4.30;;;;;;;3.09;96.18;100201.88;107706;1282;60574;-78
2022/02/01 11:08:46;;;;;;;8.50;5.00;;;;;;;3.07;96.90;100188.80;107926;1279;61429;-78
2022/02/01 11:11:21;;;;;;;8.70;4.50;;;;;;;3.05;97.55;100186.71;107784;1281;75002;-78
2022/02/01 11:13:49;;;;;;;8.30;5.90;;;;;;;3.04;98.01;100180.67;107786;1281;71118;-79
2022/02/01 11:16:25;;;;;;;15.90;4.70;;;;;;;3.02;98.71;100170.38;107763;1281;74411;-78
2022/02/01 11:18:56;;;;;;;8.00;4.80;;;;;;;3.00;99.19;100154.83;107669;1282;61274;-80
2022/02/01 11:21:23;;;;;;;10.30;4.90;;;;;;;2.99;99.83;100140.84;107713;1281;61981;-79
2022/02/01 11:23:59;;;;;;;6.80;4.40;;;;;;;2.99;99.95;100128.95;107719;1281;75345;-78
2022/02/01 11:26:35;;;;;;;8.80;4.90;;;;;;;2.98;99.98;100118.02;107847;1281;71358;-78
2022/02/01 11:31:48;;;;;;;7.10;3.30;;;;;;;2.98;100.00;100102.87;107690;1281;62128;-80
2022/02/01 11:34:29;;;;;;;11.80;4.40;;;;;;;2.98;100.00;100094.42;107863;1281;60669;-79
2022/02/01 11:37:07;;;;;;;5.20;3.40;;;;;;;2.97;100.00;100072.36;107778;1282;74894;-80
2022/02/01 11:39:34;;;;;;;7.80;3.70;;;;;;;2.96;100.00;100065.09;107629;1281;72445;-79
2022/02/01 11:42:13;;;;;;;8.50;3.80;;;;;;;2.97;100.00;100056.31;107521;1279;72809;-79
2022/02/01 11:44:40;;;;;;;9.70;3.80;;;;;;;2.97;100.00;100052.59;107677;1282;61723;-79
2022/02/01 11:47:16;;;;;;;4.50;2.90;;;;;;;2.96;100.00;100045.70;107679;1281;61732;-79
2022/02/01 11:50:00;;;;;;;4.10;3.30;;;;;;;2.97;100.00;100034.38;107749;1281;76130;-80
2022/02/01 11:52:28;;;;;;;8.90;3.50;;;;;;;2.98;100.00;100031.72;107502;1281;72556;-79
2022/02/01 11:55:05;;;;;;;6.30;3.20;;;;;;;3.00;100.00;100030.17;107617;1282;72755;-78
2022/02/01 11:57:52;;;;;;;;;;;;;;;3.03;100.00;100019.34;107527;1281;60059;-80
2022/02/01 12:00:24;;;;;;;5.30;2.50;;;;;;;3.06;100.00;100005.42;107925;1279;60364;-78
2022/02/01 12:03:01;;;;;;;6.00;2.50;;;;;;;3.11;100.00;99998.73;107504;1282;75983;-79
2022/02/01 12:05:32;;;;;;;3.70;2.20;;;;;;;3.15;100.00;99996.06;107888;1279;70184;-80
2022/02/01 12:08:18;;;;;;;2.70;1.80;;;;;;;3.19;100.00;99975.39;107876;1279;75707;-80
2022/02/01 12:10:48;;;;;;;2.80;1.70;;;;;;;3.25;100.00;99962.79;107683;1282;63032;-79
2022/02/01 12:13:20;;;;;;;3.60;1.70;;;;;;;3.27;100.00;99956.45;107547;1282;59692;-80
2022/02/01 12:15:51;;;;;;;4.00;2.00;;;;;;;3.31;100.00;99950.90;107891;1281;76019;-79
2022/02/01 12:18:30;;;;;;;3.30;1.60;;;;;;;3.36;100.00;99948.32;107647;1282;70718;-79
2022/02/01 12:21:24;;;;;;;1.80;1.20;;;;;;;3.44;100.00;99933.37;107687;1282;74474;-80
2022/02/01 12:23:55;;;;;;;3.00;1.20;;;;;;;3.52;100.00;99919.14;107933;1280;62284;-81
2022/02/01 12:26:32;;;;;;;4.20;1.50;;;;;;;3.58;100.00;99916.48;107542;1281;60637;-78
2022/02/01 12:29:07;;;;;;;1.90;1.30;;;;;;;3.63;100.00;99902.46;107931;1281;76328;-78
2022/02/01 12:31:38;;;;;;;1.60;0.90;;;;;;;3.70;100.00;99885.43;107598;1282;71520;-81
2022/02/01 12:34:17;;;;;;;1.60;1.10;;;;;;;3.75;100.00;99871.25;107751;1281;73157;-79
2022/02/01 12:36:52;;;;;;;1.70;0.70;;;;;;;3.80;100.00;99863.22;107727;1281;63328;-79
2022/02/01 12:39:35;;;;;;;2.80;1.10;;;;;;;3.85;100.00;99853.46;107461;1279;60622;-80
2022/02/01 12:42:12;;;;;;;;;;;;;;;3.91;100.00;99846.94;107604;1282;74628;-79
2022/02/01 12:47:22;;;;;;;5.40;1.20;;;;;;;4.10;100.00;99826.87;107564;1281;73012;-80
2022/02/01 12:50:15;;;;;;;2.20;1.00;;;;;;;4.16;100.00;99833.61;107831;1281;61606;-80
2022/02/01 12:52:42;;;;;;;2.00;1.10;;;;;;;4.19;100.00;99830.19;107717;1282;59046;-80
2022/02/01 12:55:14;;;;;;;1.10;0.80;;;;;;;4.26;100.00;99806.00;107590;1281;75839;-82
2022/02/01 12:58:04;;;;;;;1.50;0.90;;;;;;;4.31;100.00;99792.21;107585;1281;72541;-81
2022/02/01 13:00:53;;;;;;;3.00;1.10;;;;;;;4.34;100.00;99797.64;107591;1282;74921;-80
2022/02/01 13:03:23;;;;;;;2.90;1.30;;;;;;;4.34;100.00;99789.61;108011;1279;62326;-80
2022/02/01 13:05:58;;;;;;;1.20;0.70;;;;;;;4.36;100.00;99787.54;107775;1281;61639;-83
2022/02/01 13:22:09;;;;;;;3.70;1.30;;;;;;;4.41;100.00;99762.07;107697;1279;75216;-80